Kalamazoo, MI (49007)

9:17 AM EST on December 08, 2016 (GMT -0500)
KMIKALAM34 | | Change Station
Active Advisory: Winter Storm Warning

Elev 771 ft 42.31 °N, 85.58 °W | Updated 54 seconds ago

Snow
Snow
27.6 °F
Feels Like 19 °F
N
9.0
Wind Variable Wind from West
Gusts 12.0 mph

Today
High -- | Low -- °F
--% Chance of Precip.
Yesterday
High -- | Low -- °F
Precip. -- in
Pressure 30.12 in
Visibility 1.0 miles
Clouds Mostly Cloudy 1400 ft
Mostly Cloudy 2000 ft
Overcast 3900 ft
Windchill 19 °F
Dew Point 18 °F
Humidity 67%
Rainfall 0.00 in
Snow Depth Not available.
7:59 AM 5:09 PM
Waxing Gibbous, 63% visible
METAR KAZO 081353Z 26010KT 1SM R35/P6000FT -SN BKN014 BKN020 OVC039 M04/M07 A3008 RMK AO2 SLP197 VIS 1/4V1 P0000 T10391067
Pressure 30.12 in
Visibility 1.0 miles
Clouds Mostly Cloudy 1400 ft
Mostly Cloudy 2000 ft
Overcast 3900 ft
Windchill 19 °F
Dew Point 18 °F
Humidity 67%
Rainfall 0.00 in
Snow Depth Not available.
7:59 AM 5:09 PM
Waxing Gibbous, 63% visible
METAR KAZO 081353Z 26010KT 1SM R35/P6000FT -SN BKN014 BKN020 OVC039 M04/M07 A3008 RMK AO2 SLP197 VIS 1/4V1 P0000 T10391067

10-Day Weather Forecast

Almanac

Astronomy

Dec. 08, 2016 Rise Set
Actual Time
Civil Twilight
Nautical Twilight
Astronomical Twilight
Moon
Length of Visible Light
Length of Day
Tomorrow will be .
, % of the Moon is Illuminated

Today's Extremes

State Highs State Lows

Community

WunderPhotos

Upload Photos

1,956,268 photos uploaded!

WunderBlog® & News

Nearby

Air Quality

  Air Quality AQ Index Pollutant
Not available.

Snow Depth

Station Depth Elevation

Earthquake Activity

City Distance Mag. Time & Date
Minimum magnitude displayed is 2.5.

Coastal Water Temperatures

Place Temperature

Stations

Nearby Weather Stations

Station Location Temp. Windchill Dew Point Humidity Wind Precip. Elev Updated Type
                   

Watches & Warnings

Winter Storm Warning
Issued: 4:01 AM EST Dec. 8, 2016 – National Weather Service

... Winter Storm Warning remains in effect until 4 PM EST Friday...

Hazardous weather...

* snow showers will increase in intensity and areal coverage,
   especially this afternoon and continue into tonight.

* Snowfall totals up to a foot are expected by late Friday.

* Gusty west to northwest winds will result in blowing snow.

* Wind chill readings 10 to 15 above zero.

* Near whiteout conditions are possible as visibilities will be
   changing rapidly.

Impacts...

* roads will become snow covered and slippery.

* Longer commute times.

Precautionary/preparedness actions...

* the Michigan Department of Transportation reminds motorists to
   adjust speeds based on the conditions, and to take it slow in
   ice and snow.

* Weather preparedness information is available online at:
   www.Ready.Gov/winter.